Korla Airport


Codes: ZWKL/KRL
Name: Korla Airport
City: Korla
Country: China
Elevation: 0 ft.
Wikipedia:

Photos at Korla Airport


   Photos courtesy of SpottingLog. You can add your own sightings and photos by signing up for a free trial today.



No photos found.

Weather at Korla Airport


Time (UTC)DescriptionTempratureWindCloud coverageVisibilityPressureHumidity
16-Jun-2024 09:00Clear Sky34°C4 mph, W2%10000m1002hPa14%
16-Jun-2024 12:00Clear Sky34°C11 mph, N2%10000m1002hPa13%
16-Jun-2024 15:00Clear Sky31°C11 mph, NE3%10000m1002hPa18%
16-Jun-2024 18:00Clear Sky28°C9 mph, N2%10000m1003hPa21%
16-Jun-2024 21:00Clear Sky25°C13 mph, NE0%10000m1003hPa25%
17-Jun-2024 00:00Clear Sky26°C20 mph, NE7%10000m1005hPa28%
17-Jun-2024 03:00Clear Sky30°C20 mph, NE10%10000m1004hPa16%
17-Jun-2024 06:00Clear Sky33°C11 mph, NE10%10000m1003hPa13%
17-Jun-2024 09:00Few Clouds35°C7 mph, SW12%10000m1000hPa10%
17-Jun-2024 12:00Clear Sky35°C16 mph, SW9%10000m999hPa10%
17-Jun-2024 15:00Broken Clouds30°C4 mph, S62%10000m1000hPa13%
17-Jun-2024 18:00Broken Clouds29°C13 mph, NE51%10000m1001hPa18%
17-Jun-2024 21:00Overcast Clouds26°C18 mph, NE94%10000m1002hPa25%
18-Jun-2024 00:00Broken Clouds27°C16 mph, NE76%10000m1003hPa24%
18-Jun-2024 03:00Broken Clouds31°C9 mph, N70%10000m1003hPa14%
18-Jun-2024 06:00Broken Clouds34°C4 mph, W73%10000m1001hPa13%
18-Jun-2024 09:00Overcast Clouds35°C11 mph, SW96%10000m999hPa12%
18-Jun-2024 12:00Broken Clouds35°C13 mph, W80%10000m998hPa12%
18-Jun-2024 15:00Overcast Clouds31°C16 mph, NE99%10000m999hPa18%
18-Jun-2024 18:00Overcast Clouds26°C27 mph, NE88%10000m1001hPa29%
18-Jun-2024 21:00Clear Sky26°C11 mph, NE4%10000m1002hPa29%
19-Jun-2024 00:00Clear Sky26°C4 mph, NE2%10000m1002hPa29%
19-Jun-2024 03:00Clear Sky30°C4 mph, W7%10000m1002hPa20%
19-Jun-2024 06:00Broken Clouds33°C11 mph, W56%10000m1000hPa18%
19-Jun-2024 09:00Overcast Clouds33°C18 mph, W99%10000m997hPa16%
19-Jun-2024 12:00Overcast Clouds34°C7 mph, W88%10000m996hPa15%
19-Jun-2024 15:00Overcast Clouds30°C4 mph, NE89%10000m997hPa20%
19-Jun-2024 18:00Overcast Clouds27°C13 mph, NE93%10000m999hPa24%
19-Jun-2024 21:00Broken Clouds23°C22 mph, NE58%10000m1002hPa37%
20-Jun-2024 00:00Scattered Clouds23°C9 mph, NE44%10000m1004hPa37%
20-Jun-2024 03:00Overcast Clouds28°C4 mph, E100%10000m1004hPa26%
20-Jun-2024 06:00Broken Clouds31°C7 mph, E83%10000m1003hPa19%
20-Jun-2024 09:00Broken Clouds33°C11 mph, SW76%10000m1001hPa17%
20-Jun-2024 12:00Broken Clouds33°C7 mph, W67%10000m1001hPa17%
20-Jun-2024 15:00Broken Clouds29°C4 mph, SW52%10000m1002hPa20%
20-Jun-2024 18:00Broken Clouds28°C7 mph, SE72%10000m1003hPa21%
20-Jun-2024 21:00Overcast Clouds24°C4 mph, E93%10000m1004hPa16%
21-Jun-2024 00:00Overcast Clouds25°C0 mph, SE87%10000m1005hPa13%
21-Jun-2024 03:00Overcast Clouds30°C7 mph, S98%10000m1004hPa8%
21-Jun-2024 06:00Overcast Clouds34°C9 mph, SW87%10000m1002hPa10%